Terminal Aerodrome Forecast
Issued by NWS

Home | Current Version | Previous Version | Text Only | Print | Product List | Glossary Off
Versions: 1 2 3 4 5 6 7 8 9 10 11 12 13 14 15 16 17 18

000
FTUS43 KIWX 270500
TAFSBN
TAF
KSBN 270529Z 2706/2806 21008KT P6SM SCT060
     FM271300 23015G25KT P6SM VCSH SCT025 BKN050
     FM271700 26015G25KT P6SM BKN040
     FM272300 29010KT P6SM SCT045
     FM280200 VRB03KT P6SM SKC=

USA.gov is the U.S. government's official web portal to all federal, state and local government web resources and services.